Time;durP1;ratioP1;P1;durP2;ratioP2;P2;SDS_P1;SDS_P2;PMS_P1;PMS_P2;Temp;Humidity;BMP_temperature;BMP_pressure;BME280_temperature;BME280_humidity;BME280_pressure;Samples;Min_cycle;Max_cycle;Signal;HPM_P1;HPM_P2
2022/09/21 00:01:25;;;;;;;11.80;5.30;;;;;;;10.21;53.18;102677.84;7393189;19;20054;-60
2022/09/21 00:03:59;;;;;;;9.65;4.68;;;;;;;10.34;52.95;102665.41;7393290;19;19998;-60
2022/09/21 00:06:27;;;;;;;11.88;5.35;;;;;;;10.47;52.82;102666.56;7393492;19;20443;-59
2022/09/21 00:08:54;;;;;;;14.18;4.90;;;;;;;10.27;52.62;102673.13;7391387;19;20029;-60
2022/09/21 00:11:28;;;;;;;9.88;4.90;;;;;;;10.31;52.36;102666.78;7391620;19;20025;-60
2022/09/21 00:13:59;;;;;;;9.32;4.55;;;;;;;10.24;52.75;102674.53;7389487;19;20024;-59
2022/09/21 00:16:25;;;;;;;10.23;4.55;;;;;;;10.15;52.93;102676.28;7391151;19;20021;-60
2022/09/21 00:18:51;;;;;;;11.25;4.90;;;;;;;10.17;53.02;102674.09;7391163;19;20062;-59
2022/09/21 00:21:17;;;;;;;9.82;4.63;;;;;;;10.20;53.03;102670.75;7392146;19;20041;-59
2022/09/21 00:23:43;;;;;;;12.02;4.85;;;;;;;10.15;53.02;102671.66;7395034;19;20482;-60
2022/09/21 00:26:14;;;;;;;8.80;4.38;;;;;;;10.12;53.17;102674.16;7396444;19;20007;-60
2022/09/21 00:28:40;;;;;;;11.27;4.80;;;;;;;10.06;53.17;102676.13;7393727;19;20002;-60
2022/09/21 00:31:11;;;;;;;9.55;4.80;;;;;;;10.00;53.08;102678.13;7397584;19;20074;-59
2022/09/21 00:33:37;;;;;;;9.20;4.75;;;;;;;10.01;52.80;102676.19;7396875;19;20014;-60
2022/09/21 00:36:06;;;;;;;10.15;4.43;;;;;;;9.92;53.00;102673.31;7397330;19;19994;-57
2022/09/21 00:38:32;;;;;;;11.57;4.72;;;;;;;9.89;52.97;102676.59;7395162;19;20009;-57
2022/09/21 00:40:57;;;;;;;11.18;4.60;;;;;;;9.90;52.72;102675.50;7395846;19;20014;-57
2022/09/21 00:43:23;;;;;;;9.95;4.65;;;;;;;9.93;52.95;102677.63;7397048;19;20002;-58
2022/09/21 00:45:51;;;;;;;12.65;5.40;;;;;;;10.27;52.77;102673.97;7395070;19;20015;-59
2022/09/21 00:48:17;;;;;;;10.35;4.82;;;;;;;10.31;52.14;102672.25;7394926;19;20013;-58
2022/09/21 00:50:49;;;;;;;10.25;4.72;;;;;;;10.15;52.46;102681.75;7396791;19;20010;-58
2022/09/21 00:53:15;;;;;;;14.13;5.63;;;;;;;10.22;53.03;102684.94;7396675;19;20027;-58
2022/09/21 00:55:45;;;;;;;11.13;5.05;;;;;;;10.23;52.94;102686.56;7394845;19;20011;-58
2022/09/21 00:58:17;;;;;;;9.05;4.70;;;;;;;10.36;52.83;102690.47;7398625;19;20021;-59
2022/09/21 01:00:42;;;;;;;11.93;5.13;;;;;;;10.20;52.78;102678.94;7396072;19;20006;-58
2022/09/21 01:03:10;;;;;;;10.75;5.28;;;;;;;10.37;52.36;102676.53;7396143;19;20485;-58
2022/09/21 01:05:36;;;;;;;9.38;4.93;;;;;;;10.28;52.83;102682.94;7396628;19;20458;-60
2022/09/21 01:08:05;;;;;;;9.88;4.32;;;;;;;10.29;52.79;102676.41;7394348;19;20006;-60
2022/09/21 01:10:43;;;;;;;10.40;5.28;;;;;;;9.99;52.59;102681.13;7396413;19;20019;-60
2022/09/21 01:13:26;;;;;;;10.60;4.88;;;;;;;9.90;53.05;102680.97;7394468;19;20002;-61
2022/09/21 01:16:13;;;;;;;10.37;5.17;;;;;;;9.93;52.79;102674.91;7396121;19;19998;-61
2022/09/21 01:18:50;;;;;;;9.07;4.10;;;;;;;9.84;52.85;102676.66;7393189;19;20256;-61
2022/09/21 01:21:17;;;;;;;8.95;4.38;;;;;;;9.80;53.12;102694.69;7395080;19;19999;-60
2022/09/21 01:24:15;;;;;;;9.10;4.72;;;;;;;9.79;52.90;102684.91;7394774;19;19998;-60
2022/09/21 01:27:06;;;;;;;8.65;4.35;;;;;;;9.91;52.25;102679.84;7395534;19;20470;-60
2022/09/21 01:29:49;;;;;;;10.18;4.53;;;;;;;9.89;52.42;102687.50;7392428;19;20024;-60
2022/09/21 01:32:33;;;;;;;7.53;3.90;;;;;;;9.86;52.25;102688.09;7395029;19;20324;-60
2022/09/21 01:35:08;;;;;;;;;;;;;;;9.62;52.49;102686.19;7393638;19;20011;-60
2022/09/21 01:37:52;;;;;;;9.43;4.18;;;;;;;9.68;52.55;102688.84;7393045;19;19918;-60
2022/09/21 01:40:23;;;;;;;11.55;4.80;;;;;;;9.70;52.60;102686.63;7394442;19;20002;-60
2022/09/21 01:42:51;;;;;;;7.50;4.03;;;;;;;9.89;51.97;102690.25;7394271;19;20121;-60
2022/09/21 01:45:22;;;;;;;10.50;4.43;;;;;;;9.81;52.02;102699.06;7394515;19;20162;-59
2022/09/21 01:47:50;;;;;;;8.65;4.20;;;;;;;9.64;52.78;102689.41;7392011;19;20711;-60
2022/09/21 01:50:19;;;;;;;11.60;4.18;;;;;;;9.74;52.63;102696.69;7394540;19;20328;-60
2022/09/21 01:52:56;;;;;;;7.45;3.45;;;;;;;9.81;52.52;102688.16;7392617;19;20033;-60
2022/09/21 01:55:27;;;;;;;10.30;4.57;;;;;;;9.74;52.39;102685.78;7391432;19;20445;-60
2022/09/21 01:58:01;;;;;;;8.48;4.40;;;;;;;9.71;52.61;102691.00;7394901;19;20002;-60
2022/09/21 02:00:28;;;;;;;9.40;3.88;;;;;;;9.67;52.92;102695.38;7391792;19;20494;-60
2022/09/21 02:03:01;;;;;;;8.43;3.78;;;;;;;9.72;52.65;102687.97;7394579;19;19994;-60
2022/09/21 02:05:29;;;;;;;10.57;4.22;;;;;;;9.82;52.64;102695.25;7394157;19;19995;-60
2022/09/21 02:07:56;;;;;;;9.02;4.20;;;;;;;9.87;52.50;102692.47;7392205;19;20006;-60
2022/09/21 02:10:33;;;;;;;9.30;4.00;;;;;;;9.97;52.01;102697.78;7394043;19;20012;-60
2022/09/21 02:13:04;;;;;;;8.65;4.03;;;;;;;10.00;51.58;102694.50;7392682;19;19997;-60
2022/09/21 02:15:44;;;;;;;9.98;4.13;;;;;;;9.82;52.41;102701.50;7393927;19;20029;-60
2022/09/21 02:18:33;;;;;;;8.40;3.63;;;;;;;9.91;52.09;102693.50;7391002;19;19999;-60
2022/09/21 02:21:02;;;;;;;9.27;4.28;;;;;;;10.02;51.51;102702.38;7392071;19;19998;-60
2022/09/21 02:23:34;;;;;;;8.70;4.00;;;;;;;10.15;51.41;102698.94;7392722;19;20078;-60
2022/09/21 02:26:14;;;;;;;8.13;4.00;;;;;;;9.82;51.93;102701.50;7393073;19;20481;-59
2022/09/21 02:28:50;;;;;;;9.98;3.92;;;;;;;9.69;52.60;102704.13;7389805;19;19998;-59
2022/09/21 02:31:21;;;;;;;9.27;4.18;;;;;;;9.50;52.53;102696.63;7393313;19;20022;-60
2022/09/21 02:34:01;;;;;;;9.50;4.10;;;;;;;9.37;52.56;102695.38;7392895;19;20006;-60
2022/09/21 02:36:43;;;;;;;8.63;3.53;;;;;;;9.38;52.48;102691.56;7393175;19;20019;-60
2022/09/21 02:39:17;;;;;;;10.90;4.20;;;;;;;9.38;52.15;102693.47;7389195;19;19998;-60
2022/09/21 02:41:53;;;;;;;10.80;4.30;;;;;;;9.37;52.26;102698.13;7392360;19;20066;-59
2022/09/21 02:44:31;;;;;;;8.27;3.58;;;;;;;9.35;52.24;102694.88;7390870;19;20006;-59
2022/09/21 02:47:03;;;;;;;10.35;4.20;;;;;;;9.44;52.23;102697.78;7390382;19;20346;-60
2022/09/21 02:49:36;;;;;;;9.90;4.43;;;;;;;9.60;51.82;102696.56;7389389;19;20003;-61
2022/09/21 02:52:12;;;;;;;9.32;4.10;;;;;;;9.46;52.17;102693.66;7392895;19;19998;-60
2022/09/21 02:54:39;;;;;;;10.10;4.22;;;;;;;9.43;52.14;102701.59;7392216;19;20034;-60
2022/09/21 02:57:06;;;;;;;9.63;4.40;;;;;;;9.39;52.24;102700.56;7394108;19;20013;-60
2022/09/21 02:59:31;;;;;;;7.65;4.00;;;;;;;9.24;52.18;102696.03;7388860;19;20019;-60
2022/09/21 03:01:57;;;;;;;10.48;4.43;;;;;;;9.27;52.23;102696.28;7389954;19;20335;-60
2022/09/21 03:04:23;;;;;;;25.27;4.82;;;;;;;9.25;52.47;102703.94;7391967;19;20003;-60
2022/09/21 03:06:49;;;;;;;8.30;4.28;;;;;;;9.20;52.58;102703.97;7392412;19;20051;-60
2022/09/21 03:09:14;;;;;;;8.77;4.13;;;;;;;9.22;52.59;102701.78;7389983;19;19995;-60
2022/09/21 03:11:42;;;;;;;10.73;4.53;;;;;;;9.30;52.08;102702.25;7390890;19;19998;-60
2022/09/21 03:14:07;;;;;;;10.35;4.32;;;;;;;9.24;51.61;102696.84;7390967;19;20010;-60
2022/09/21 03:16:37;;;;;;;13.38;4.75;;;;;;;9.49;51.16;102708.63;7390046;19;20006;-60
2022/09/21 03:19:04;;;;;;;7.75;3.80;;;;;;;9.27;51.50;102707.19;7389556;19;20019;-60
2022/09/21 03:21:30;;;;;;;9.85;4.30;;;;;;;9.21;51.69;102707.50;7390023;19;20383;-60
2022/09/21 03:23:56;;;;;;;12.88;4.78;;;;;;;9.32;51.96;102710.97;7392194;19;20011;-60
2022/09/21 03:26:22;;;;;;;9.80;4.50;;;;;;;9.31;52.44;102701.16;7390285;19;19994;-60
2022/09/21 03:28:48;;;;;;;12.15;4.85;;;;;;;9.25;52.27;102714.84;7390027;19;19998;-60
2022/09/21 03:31:15;;;;;;;11.48;4.93;;;;;;;9.42;52.12;102710.88;7390734;19;20550;-60
2022/09/21 03:33:40;;;;;;;11.75;5.13;;;;;;;9.36;52.00;102714.75;7391166;19;20021;-61
2022/09/21 03:36:06;;;;;;;11.32;5.30;;;;;;;9.20;51.96;102720.34;7391156;19;20006;-61
2022/09/21 03:38:32;;;;;;;10.55;4.57;;;;;;;9.48;51.15;102722.53;7389563;19;20074;-61
2022/09/21 03:40:58;;;;;;;11.18;4.53;;;;;;;9.46;51.16;102720.09;7391433;19;20039;-61
2022/09/21 03:43:24;;;;;;;10.68;4.65;;;;;;;9.30;51.65;102724.06;7390044;19;20003;-61
2022/09/21 03:45:50;;;;;;;10.90;4.40;;;;;;;9.12;51.77;102718.22;7391585;19;20010;-61
2022/09/21 03:48:15;;;;;;;9.02;4.30;;;;;;;9.14;52.31;102713.28;7387380;19;20454;-61
2022/09/21 03:50:41;;;;;;;8.52;4.20;;;;;;;9.33;51.33;102716.13;7391915;19;20029;-61
2022/09/21 03:53:08;;;;;;;8.88;4.38;;;;;;;9.19;51.79;102721.41;7391035;19;20010;-61
2022/09/21 03:55:35;;;;;;;8.77;4.40;;;;;;;9.03;51.96;102718.03;7389472;19;19995;-60
2022/09/21 03:58:01;;;;;;;8.63;4.20;;;;;;;9.02;51.79;102721.03;7396825;19;20032;-61
2022/09/21 04:00:27;;;;;;;10.63;4.90;;;;;;;9.27;51.39;102720.00;7398404;19;20006;-60
2022/09/21 04:02:53;;;;;;;12.13;4.78;;;;;;;9.12;51.91;102715.50;7398044;19;20336;-60
2022/09/21 04:05:19;;;;;;;10.10;4.70;;;;;;;8.99;52.15;102733.28;7397385;19;20403;-60
2022/09/21 04:07:45;;;;;;;11.05;5.00;;;;;;;8.96;52.35;102728.41;7397003;19;19995;-60
2022/09/21 04:10:14;;;;;;;10.70;4.85;;;;;;;9.43;51.37;102724.22;7396987;19;20007;-60
2022/09/21 04:12:42;;;;;;;11.43;4.40;;;;;;;9.64;50.39;102722.13;7397780;19;20008;-60
2022/09/21 04:15:10;;;;;;;10.13;4.28;;;;;;;9.44;50.20;102722.31;7393867;19;20006;-61
2022/09/21 04:17:35;;;;;;;9.35;4.13;;;;;;;9.58;50.06;102717.81;7395292;19;20014;-60
2022/09/21 04:20:01;;;;;;;9.55;5.30;;;;;;;9.34;50.35;102717.75;7394440;19;20090;-60
2022/09/21 04:22:26;;;;;;;9.60;4.55;;;;;;;9.01;51.10;102722.09;7397798;19;20002;-60
2022/09/21 04:24:52;;;;;;;10.63;4.40;;;;;;;8.93;51.55;102715.34;7396405;19;20007;-60
2022/09/21 04:27:17;;;;;;;11.05;4.45;;;;;;;9.09;50.97;102722.31;7397290;19;20007;-60
2022/09/21 04:29:44;;;;;;;10.45;4.85;;;;;;;8.98;51.11;102719.94;7393280;19;19995;-61
2022/09/21 04:32:10;;;;;;;11.35;4.78;;;;;;;8.87;51.35;102719.22;7396757;19;19998;-62
2022/09/21 04:34:38;;;;;;;12.45;4.60;;;;;;;8.82;51.69;102724.69;7397383;19;19994;-62
2022/09/21 04:37:04;;;;;;;10.15;4.60;;;;;;;8.88;51.53;102724.38;7397429;19;20002;-59
2022/09/21 04:39:30;;;;;;;9.15;4.30;;;;;;;8.92;51.83;102713.72;7393787;19;20058;-59
2022/09/21 04:41:55;;;;;;;12.65;4.95;;;;;;;9.02;51.46;102723.75;7396884;19;19995;-56
2022/09/21 04:44:21;;;;;;;11.40;5.25;;;;;;;8.95;51.76;102728.69;7397367;19;20012;-57
2022/09/21 04:46:46;;;;;;;10.73;4.93;;;;;;;9.05;51.89;102728.63;7394642;19;20022;-57
2022/09/21 04:49:12;;;;;;;10.82;5.03;;;;;;;9.10;52.07;102725.88;7394679;19;19991;-58
2022/09/21 04:51:37;;;;;;;10.88;5.05;;;;;;;9.36;50.89;102729.19;7395251;19;19994;-57
2022/09/21 04:54:03;;;;;;;10.63;5.22;;;;;;;9.36;50.92;102726.44;7396470;19;20005;-58
2022/09/21 04:56:29;;;;;;;9.25;4.90;;;;;;;9.08;51.13;102733.50;7397030;19;19991;-59
2022/09/21 04:58:54;;;;;;;11.02;4.75;;;;;;;9.11;51.23;102732.91;7392509;19;20427;-58
2022/09/21 05:01:20;;;;;;;10.60;5.13;;;;;;;8.96;51.37;102727.59;7394205;19;20017;-58
2022/09/21 05:03:45;;;;;;;9.95;4.25;;;;;;;8.90;51.57;102733.06;7396312;19;20466;-59
2022/09/21 05:06:12;;;;;;;13.00;5.45;;;;;;;8.82;51.85;102739.13;7395747;19;20006;-58
2022/09/21 05:11:23;;;;;;;12.48;5.13;;;;;;;8.67;52.19;102740.03;7395597;19;20343;-58
2022/09/21 05:13:49;;;;;;;8.43;4.60;;;;;;;8.70;51.86;102735.94;7395441;19;20045;-58
2022/09/21 05:16:16;;;;;;;13.45;5.45;;;;;;;8.74;51.46;102747.88;7396061;19;20003;-59
2022/09/21 05:18:43;;;;;;;11.95;5.55;;;;;;;8.96;50.76;102742.00;7392269;19;20002;-58
2022/09/21 05:21:10;;;;;;;12.90;5.80;;;;;;;9.22;50.05;102753.56;7395401;19;19998;-59
2022/09/21 05:23:35;;;;;;;11.00;6.10;;;;;;;9.30;49.85;102751.31;7396369;19;20010;-59
2022/09/21 05:26:01;;;;;;;11.70;5.47;;;;;;;8.95;50.93;102753.19;7395430;19;20017;-58
2022/09/21 05:28:27;;;;;;;10.90;5.43;;;;;;;8.79;51.20;102744.31;7394421;19;20009;-59
2022/09/21 05:31:17;;;;;;;13.07;6.00;;;;;;;8.62;51.78;102755.56;7395377;19;20003;-59
2022/09/21 05:34:15;;;;;;;12.45;5.80;;;;;;;8.71;51.57;102752.00;7395839;19;20003;-58
2022/09/21 05:36:55;;;;;;;11.00;5.53;;;;;;;8.75;51.78;102749.50;7394821;19;20469;-59
2022/09/21 05:39:21;;;;;;;13.20;5.53;;;;;;;8.82;51.61;102755.47;7393055;19;19998;-59
2022/09/21 05:41:47;;;;;;;10.90;5.80;;;;;;;8.91;51.77;102763.84;7395484;19;20072;-59
2022/09/21 05:44:13;;;;;;;10.85;4.70;;;;;;;8.95;51.74;102759.47;7395163;19;20003;-59
2022/09/21 05:46:40;;;;;;;12.88;5.60;;;;;;;8.97;51.56;102760.00;7394235;19;19998;-59
2022/09/21 05:49:18;;;;;;;10.75;5.18;;;;;;;8.92;51.80;102764.69;7392378;19;20028;-59
2022/09/21 05:51:59;;;;;;;12.23;5.22;;;;;;;8.96;51.55;102761.06;7395023;19;20010;-59
2022/09/21 05:54:31;;;;;;;9.32;5.10;;;;;;;9.13;51.90;102771.59;7393806;19;20003;-59
2022/09/21 05:57:12;;;;;;;11.60;5.53;;;;;;;9.38;51.55;102767.06;7396307;19;20018;-59
2022/09/21 05:59:46;;;;;;;11.95;5.22;;;;;;;9.45;51.95;102767.56;7392233;19;20006;-59
2022/09/21 06:02:40;;;;;;;11.45;4.70;;;;;;;9.46;52.02;102763.72;7394413;19;20002;-59
2022/09/21 06:05:14;;;;;;;12.25;5.65;;;;;;;9.64;51.81;102760.31;7394957;19;20002;-58
2022/09/21 06:07:40;;;;;;;11.43;5.43;;;;;;;9.87;51.55;102757.09;7391736;19;20017;-58
2022/09/21 06:10:11;;;;;;;13.77;5.97;;;;;;;10.03;51.36;102768.66;7394494;19;20572;-57
2022/09/21 06:12:37;;;;;;;14.95;6.07;;;;;;;9.88;52.20;102770.44;7394658;19;19998;-58
2022/09/21 06:15:05;;;;;;;12.77;6.22;;;;;;;9.93;52.01;102769.56;7392166;19;20014;-58
2022/09/21 06:17:32;;;;;;;13.10;5.40;;;;;;;10.02;52.05;102776.03;7393109;19;20006;-58
2022/09/21 06:19:57;;;;;;;13.48;5.95;;;;;;;10.06;52.15;102781.72;7392563;19;20074;-58
2022/09/21 06:22:23;;;;;;;13.57;6.20;;;;;;;10.10;52.32;102780.03;7393888;19;19998;-59
2022/09/21 06:24:48;;;;;;;15.07;6.45;;;;;;;10.21;52.36;102778.81;7392278;19;20476;-59
2022/09/21 06:27:14;;;;;;;15.52;6.88;;;;;;;10.18;52.46;102787.59;7394213;19;20074;-59
2022/09/21 06:29:39;;;;;;;15.20;6.25;;;;;;;10.22;52.35;102787.81;7391219;19;20031;-59
2022/09/21 06:32:05;;;;;;;20.27;6.95;;;;;;;10.28;52.61;102784.72;7391576;19;20002;-58
2022/09/21 06:34:30;;;;;;;14.15;7.70;;;;;;;10.26;52.84;102784.22;7392816;19;20006;-59
2022/09/21 06:36:56;;;;;;;15.95;6.82;;;;;;;10.38;52.79;102781.06;7393001;19;20011;-59
2022/09/21 06:39:22;;;;;;;14.52;6.13;;;;;;;10.48;52.37;102778.22;7391466;19;20014;-58
2022/09/21 06:41:47;;;;;;;16.85;7.72;;;;;;;10.60;52.54;102780.53;7393494;19;19998;-58
2022/09/21 06:44:13;;;;;;;18.63;6.78;;;;;;;10.68;52.28;102776.34;7393349;19;20102;-59
2022/09/21 06:46:38;;;;;;;15.07;5.70;;;;;;;10.71;52.31;102776.56;7393479;19;20445;-59
2022/09/21 06:49:04;;;;;;;16.38;5.65;;;;;;;10.72;52.08;102783.66;7388767;19;20007;-59
2022/09/21 06:51:29;;;;;;;18.27;6.47;;;;;;;10.65;52.68;102775.03;7392459;19;20017;-59
2022/09/21 06:53:56;;;;;;;16.40;6.47;;;;;;;10.65;52.77;102780.47;7392469;19;20044;-59
2022/09/21 06:56:23;;;;;;;13.07;5.20;;;;;;;10.72;52.49;102783.66;7392861;19;20058;-59
2022/09/21 06:58:49;;;;;;;15.38;5.70;;;;;;;10.88;52.20;102786.19;7390511;19;20010;-59
2022/09/21 07:01:15;;;;;;;11.60;5.88;;;;;;;10.93;52.43;102786.13;7392150;19;20003;-59
2022/09/21 07:03:41;;;;;;;16.58;6.32;;;;;;;11.03;52.23;102788.69;7392138;19;20003;-58
2022/09/21 07:06:10;;;;;;;20.75;6.70;;;;;;;11.12;51.95;102786.09;7390889;19;20005;-59
2022/09/21 07:08:38;;;;;;;16.27;6.10;;;;;;;11.19;52.02;102792.03;7390491;19;20030;-59
2022/09/21 07:11:04;;;;;;;18.00;5.70;;;;;;;11.20;51.73;102790.91;7392730;19;20009;-58
2022/09/21 07:13:29;;;;;;;16.58;6.13;;;;;;;11.24;51.97;102791.94;7391304;19;19995;-59
2022/09/21 07:15:55;;;;;;;13.95;5.95;;;;;;;11.26;51.96;102789.72;7392300;19;20032;-59
2022/09/21 07:18:21;;;;;;;19.73;5.90;;;;;;;11.30;52.13;102792.66;7389946;19;20013;-60
2022/09/21 07:20:50;;;;;;;21.88;5.88;;;;;;;11.39;51.83;102790.06;7391219;19;20604;-59
2022/09/21 07:23:18;;;;;;;14.15;5.63;;;;;;;11.38;51.84;102796.66;7392120;19;20062;-59
2022/09/21 07:25:45;;;;;;;18.23;6.10;;;;;;;11.31;51.96;102791.56;7391916;19;20003;-59
2022/09/21 07:28:11;;;;;;;16.92;5.97;;;;;;;11.37;52.24;102797.75;7388362;19;20006;-60
2022/09/21 07:30:38;;;;;;;15.68;6.00;;;;;;;11.45;51.89;102800.63;7391958;19;20334;-59
2022/09/21 07:33:05;;;;;;;18.15;5.93;;;;;;;11.54;52.01;102803.50;7389867;19;19998;-59
2022/09/21 07:35:30;;;;;;;16.33;6.13;;;;;;;11.56;51.70;102803.22;7391360;19;19995;-59
2022/09/21 07:38:00;;;;;;;14.93;5.60;;;;;;;11.65;51.80;102795.94;7390519;19;20073;-59
2022/09/21 07:40:33;;;;;;;19.50;6.53;;;;;;;11.70;51.66;102795.84;7391766;19;20029;-59
2022/09/21 07:43:03;;;;;;;18.27;7.10;;;;;;;11.72;51.85;102801.81;7391263;19;20019;-59
2022/09/21 07:45:29;;;;;;;21.33;6.53;;;;;;;11.82;51.58;102796.19;7391295;19;20010;-60
2022/09/21 07:48:01;;;;;;;17.92;6.45;;;;;;;11.88;51.37;102799.66;7390016;19;20003;-59
2022/09/21 07:50:26;;;;;;;19.92;6.10;;;;;;;11.96;51.59;102798.16;7391479;19;20014;-59
2022/09/21 07:52:51;;;;;;;15.45;5.57;;;;;;;12.01;51.48;102796.13;7390930;19;20011;-59
2022/09/21 07:55:17;;;;;;;18.25;5.82;;;;;;;12.03;51.19;102798.56;7390729;19;19998;-59
2022/09/21 08:00:31;;;;;;;14.63;5.50;;;;;;;12.08;51.19;102806.69;7390573;19;20022;-59
2022/09/21 08:02:57;;;;;;;17.90;5.20;;;;;;;12.15;50.84;102803.53;7390851;19;20058;-59
2022/09/21 08:05:23;;;;;;;13.32;4.55;;;;;;;12.18;50.79;102802.94;7390387;19;19998;-59
2022/09/21 08:07:48;;;;;;;13.75;4.65;;;;;;;12.26;50.88;102806.88;7389346;19;20026;-59
2022/09/21 08:10:14;;;;;;;16.27;4.53;;;;;;;12.22;50.80;102802.03;7390280;19;19999;-59
2022/09/21 08:12:39;;;;;;;13.98;4.97;;;;;;;12.31;50.74;102804.06;7389962;19;20485;-60
2022/09/21 08:15:05;;;;;;;13.15;4.18;;;;;;;12.34;50.68;102811.66;7388502;19;20477;-59
2022/09/21 08:17:30;;;;;;;14.48;4.05;;;;;;;12.42;50.70;102802.72;7389886;19;20351;-59
2022/09/21 08:19:56;;;;;;;12.68;3.63;;;;;;;12.54;50.45;102810.41;7387711;19;20062;-59
2022/09/21 08:22:23;;;;;;;10.50;3.88;;;;;;;12.59;49.91;102800.19;7390167;19;19994;-60
2022/09/21 08:24:49;;;;;;;9.70;3.90;;;;;;;12.71;50.11;102804.34;7389491;19;20003;-60
2022/09/21 08:27:15;;;;;;;16.65;3.55;;;;;;;12.71;49.98;102801.59;7388769;19;20514;-59
2022/09/21 08:29:41;;;;;;;11.73;3.35;;;;;;;12.86;49.48;102808.63;7387286;19;20486;-60
2022/09/21 08:32:06;;;;;;;9.18;3.85;;;;;;;12.93;49.24;102807.13;7387991;19;19999;-60
2022/09/21 08:34:32;;;;;;;11.82;3.45;;;;;;;13.02;49.17;102800.94;7389348;19;19994;-60
2022/09/21 08:36:57;;;;;;;12.38;2.95;;;;;;;13.03;49.05;102814.31;7389980;19;20058;-60
2022/09/21 08:39:23;;;;;;;11.05;2.78;;;;;;;13.12;48.87;102811.66;7387021;19;20105;-60
2022/09/21 08:42:07;;;;;;;10.57;3.28;;;;;;;13.12;48.58;102812.44;7388823;19;20379;-60
2022/09/21 08:44:48;;;;;;;11.98;2.42;;;;;;;13.21;48.78;102812.53;7393209;19;19991;-60
2022/09/21 08:47:32;;;;;;;13.07;2.38;;;;;;;13.21;48.69;102807.06;7396833;19;20506;-59
2022/09/21 08:50:00;;;;;;;13.65;2.70;;;;;;;13.19;48.54;102808.47;7396215;19;19995;-59
2022/09/21 08:52:26;;;;;;;8.27;2.70;;;;;;;13.24;48.38;102809.19;7395228;19;20336;-59
2022/09/21 08:55:08;;;;;;;10.60;3.17;;;;;;;13.26;48.31;102806.94;7395999;19;19999;-59
2022/09/21 08:57:34;;;;;;;7.78;2.25;;;;;;;13.29;48.59;102809.06;7398511;19;19994;-59
2022/09/21 09:00:00;;;;;;;12.20;2.60;;;;;;;13.29;48.34;102809.06;7393815;19;20466;-58
2022/09/21 09:02:56;;;;;;;9.75;2.40;;;;;;;13.41;48.31;102819.47;7396920;19;19998;-58
2022/09/21 09:06:07;;;;;;;14.65;3.00;;;;;;;13.45;48.04;102814.16;7396288;19;20016;-58
2022/09/21 09:09:00;;;;;;;14.73;2.92;;;;;;;13.47;48.25;102812.72;7392514;19;20002;-59
2022/09/21 09:11:47;;;;;;;11.88;2.50;;;;;;;13.51;48.09;102818.41;7393981;19;19995;-59
2022/09/21 09:15:03;;;;;;;8.80;2.17;;;;;;;13.57;47.97;102819.09;7393319;19;20018;-59
2022/09/21 09:17:45;;;;;;;;;;;;;;;13.60;48.05;102816.53;7394963;19;20466;-59
2022/09/21 09:20:30;;;;;;;12.90;2.80;;;;;;;13.66;47.72;102815.28;7392869;19;19922;-59
2022/09/21 09:23:35;;;;;;;8.52;2.05;;;;;;;13.72;47.82;102815.16;7395927;19;20466;-59
2022/09/21 09:26:24;;;;;;;10.70;2.20;;;;;;;13.81;47.71;102810.50;7394597;19;20473;-59
2022/09/21 09:29:08;;;;;;;7.75;2.10;;;;;;;13.79;47.82;102812.75;7393341;19;20002;-59
2022/09/21 09:31:35;;;;;;;9.55;2.00;;;;;;;13.80;47.72;102815.19;7395242;19;20007;-59
2022/09/21 09:34:19;;;;;;;10.90;2.22;;;;;;;13.86;47.43;102813.97;7393681;19;20010;-59
2022/09/21 09:36:55;;;;;;;14.82;2.08;;;;;;;13.83;47.58;102809.09;7395385;19;20010;-59
2022/09/21 09:39:20;;;;;;;9.85;3.35;;;;;;;13.93;47.33;102809.94;7392473;19;20409;-60
2022/09/21 09:42:04;;;;;;;10.40;2.60;;;;;;;13.96;47.49;102817.56;7395082;19;20007;-58
2022/09/21 09:45:17;;;;;;;11.02;2.63;;;;;;;13.94;47.31;102809.63;7395849;19;20002;-58
2022/09/21 09:48:07;;;;;;;8.32;2.17;;;;;;;14.00;47.32;102807.56;7390086;19;20738;-58
2022/09/21 09:50:42;;;;;;;9.70;1.77;;;;;;;14.02;46.64;102806.13;7391149;19;20011;-58
2022/09/21 09:53:16;;;;;;;7.78;1.63;;;;;;;14.10;46.73;102811.97;7392419;19;20030;-59
2022/09/21 09:55:45;;;;;;;9.18;2.08;;;;;;;14.13;46.33;102805.81;7393804;19;19995;-58
2022/09/21 09:58:22;;;;;;;7.22;1.70;;;;;;;14.16;46.16;102805.19;7396717;19;20014;-59
2022/09/21 10:00:51;;;;;;;11.50;3.65;;;;;;;14.24;46.21;102812.66;7395116;19;20010;-60
2022/09/21 10:03:24;;;;;;;6.90;1.83;;;;;;;14.27;45.87;102816.72;7394310;19;20025;-59
2022/09/21 10:05:50;;;;;;;11.52;2.47;;;;;;;14.26;45.83;102810.41;7394442;19;20007;-59
2022/09/21 10:08:45;;;;;;;9.75;1.98;;;;;;;14.28;45.66;102813.66;7392464;19;20012;-60
2022/09/21 10:11:13;;;;;;;9.02;1.80;;;;;;;14.35;45.73;102811.25;7394743;19;20005;-59
2022/09/21 10:13:45;;;;;;;7.20;1.92;;;;;;;14.37;45.82;102811.75;7392425;19;19999;-60
2022/09/21 10:16:17;;;;;;;7.93;1.77;;;;;;;14.39;45.32;102808.69;7391862;19;20006;-59
2022/09/21 10:19:00;;;;;;;12.35;2.85;;;;;;;14.40;45.54;102805.59;7392273;19;20054;-59
2022/09/21 10:21:33;;;;;;;11.23;1.75;;;;;;;14.47;45.45;102809.84;7393564;19;20062;-59
2022/09/21 10:24:06;;;;;;;10.93;2.17;;;;;;;14.54;45.28;102804.69;7392540;19;19991;-59
2022/09/21 10:26:43;;;;;;;12.60;2.20;;;;;;;14.57;45.14;102812.28;7393810;19;20005;-59
2022/09/21 10:29:21;;;;;;;12.05;1.55;;;;;;;14.61;44.59;102816.00;7390126;19;20006;-59
2022/09/21 10:32:12;;;;;;;9.63;1.90;;;;;;;14.61;44.62;102805.00;7393104;19;20126;-58
2022/09/21 10:34:40;;;;;;;9.77;1.50;;;;;;;14.63;44.96;102808.25;7391727;19;20026;-59
2022/09/21 10:37:27;;;;;;;10.63;1.80;;;;;;;14.67;44.67;102809.22;7392154;19;20461;-59
2022/09/21 10:39:53;;;;;;;9.00;1.90;;;;;;;14.68;44.46;102810.84;7390305;19;20006;-59
2022/09/21 10:42:20;;;;;;;7.57;1.42;;;;;;;14.66;44.53;102796.59;7390639;19;20006;-59
2022/09/21 10:45:05;;;;;;;9.32;1.65;;;;;;;14.77;44.15;102803.44;7393406;19;20005;-59
2022/09/21 10:47:35;;;;;;;8.90;1.70;;;;;;;14.88;43.70;102808.63;7392339;19;19995;-60
2022/09/21 10:50:06;;;;;;;8.40;1.67;;;;;;;14.80;43.21;102800.06;7393245;19;20002;-59
2022/09/21 10:52:40;;;;;;;6.35;1.40;;;;;;;14.89;43.18;102811.06;7392200;19;19999;-59
2022/09/21 10:55:13;;;;;;;8.25;1.58;;;;;;;14.96;42.95;102799.56;7392566;19;19998;-59
2022/09/21 10:57:40;;;;;;;;;;;;;;;14.94;41.20;102801.84;7393520;19;20002;-57
2022/09/21 11:00:36;;;;;;;6.22;1.33;;;;;;;14.96;42.63;102800.41;7391191;19;19910;-56
2022/09/21 11:03:25;;;;;;;10.73;1.58;;;;;;;14.99;42.84;102799.75;7391146;19;20007;-57
2022/09/21 11:05:52;;;;;;;9.55;1.90;;;;;;;15.03;42.71;102793.59;7391759;19;19991;-56
2022/09/21 11:08:26;;;;;;;6.50;1.42;;;;;;;15.06;42.95;102790.19;7389538;19;19998;-60
2022/09/21 11:11:24;;;;;;;;;;;;;;;15.13;41.97;102787.75;7392340;19;20003;-58
2022/09/21 11:14:27;;;;;;;7.45;1.60;;;;;;;15.15;42.51;102793.78;7392394;19;19918;-58
2022/09/21 11:17:02;;;;;;;12.55;3.75;;;;;;;15.15;42.20;102783.56;7391871;19;20327;-58
2022/09/21 11:19:48;;;;;;;9.85;1.88;;;;;;;15.20;41.77;102784.53;7390549;19;20002;-58
2022/09/21 11:22:52;;;;;;;9.93;1.63;;;;;;;15.27;41.05;102785.66;7391854;19;20024;-58
2022/09/21 11:25:46;;;;;;;6.38;1.23;;;;;;;15.34;41.12;102787.91;7390388;19;19998;-59
2022/09/21 11:28:24;;;;;;;8.68;1.15;;;;;;;15.33;41.64;102778.03;7391030;19;19999;-58
2022/09/21 11:31:07;;;;;;;5.55;1.13;;;;;;;15.42;40.53;102783.53;7392080;19;20001;-59
2022/09/21 11:34:04;;;;;;;8.73;1.90;;;;;;;15.48;40.46;102777.53;7391319;19;20050;-59
2022/09/21 11:36:54;;;;;;;7.75;1.20;;;;;;;15.44;40.01;102776.56;7391167;19;19998;-59
2022/09/21 11:39:38;;;;;;;6.57;1.20;;;;;;;15.41;40.47;102774.47;7388743;19;19999;-58
2022/09/21 11:42:16;;;;;;;6.55;1.35;;;;;;;15.41;40.28;102777.22;7391141;19;20004;-59
2022/09/21 11:44:54;;;;;;;6.75;1.10;;;;;;;15.26;40.38;102770.28;7389701;19;19995;-59
2022/09/21 11:47:44;;;;;;;5.50;1.20;;;;;;;15.42;38.39;102765.09;7390889;19;20457;-59
2022/09/21 11:50:18;;;;;;;7.95;1.25;;;;;;;15.46;39.41;102768.78;7389406;19;19994;-60
2022/09/21 11:53:10;;;;;;;9.23;1.25;;;;;;;15.50;39.45;102775.25;7389814;19;19991;-60